createdAt,value
2022-08-05T00:00:51.305Z,44.70
2022-08-05T00:01:52.883Z,44.61
2022-08-05T00:02:54.490Z,44.40
2022-08-05T00:03:57.195Z,44.91
2022-08-05T00:04:58.871Z,44.77
2022-08-05T00:06:04.838Z,44.90
2022-08-05T00:07:59.451Z,45.72
2022-08-05T00:08:43.539Z,45.69
2022-08-05T00:09:45.048Z,45.30
2022-08-05T00:10:47.123Z,45.48
2022-08-05T00:11:56.034Z,45.23
2022-08-05T00:13:01.401Z,45.62
2022-08-05T00:14:11.981Z,45.33
2022-08-05T00:15:56.136Z,45.44
2022-08-05T00:16:52.476Z,45.37
2022-08-05T00:17:55.255Z,45.21
2022-08-05T00:18:56.775Z,45.54
2022-08-05T00:20:02.634Z,45.45
2022-08-05T00:21:06.935Z,45.63
2022-08-05T00:22:11.231Z,45.46
2022-08-05T00:23:13.307Z,45.70
2022-08-05T00:24:18.982Z,45.37
2022-08-05T00:25:25.887Z,45.34
2022-08-05T00:26:27.399Z,45.51
2022-08-05T00:27:35.967Z,45.61
2022-08-05T00:28:38.537Z,45.22
2022-08-05T00:29:41.438Z,45.62
2022-08-05T00:30:44.119Z,45.62
2022-08-05T00:32:10.678Z,45.74
2022-08-05T00:33:07.658Z,45.42
2022-08-05T00:34:56.127Z,45.11
2022-08-05T00:36:16.400Z,45.35
2022-08-05T00:37:14.208Z,45.77
2022-08-05T00:38:16.007Z,45.44
2022-08-05T00:39:30.402Z,45.66
2022-08-05T00:41:01.470Z,45.60
2022-08-05T00:42:03.114Z,45.80
2022-08-05T00:43:07.614Z,45.90
2022-08-05T00:44:09.165Z,45.85
2022-08-05T00:45:13.425Z,46.03
2022-08-05T00:46:15.128Z,46.37
2022-08-05T00:47:17.811Z,46.72
2022-08-05T00:48:31.463Z,46.17
2022-08-05T00:49:44.595Z,46.06
2022-08-05T00:50:53.215Z,46.35
2022-08-05T00:51:54.797Z,46.65
2022-08-05T00:52:56.891Z,47.15
2022-08-05T00:54:02.591Z,47.41
2022-08-05T00:55:05.138Z,47.44
2022-08-05T00:56:07.969Z,47.21
2022-08-05T00:57:09.654Z,47.19
2022-08-05T00:58:12.757Z,47.01
2022-08-05T00:59:14.755Z,47.08
2022-08-05T01:00:17.014Z,47.06
2022-08-05T01:01:41.959Z,46.53
2022-08-05T01:02:40.419Z,46.85
2022-08-05T01:03:42.865Z,47.21
2022-08-05T01:04:44.501Z,47.16
2022-08-05T01:05:54.501Z,47.46
2022-08-05T01:06:56.553Z,47.40
2022-08-05T01:08:40.218Z,47.10
2022-08-05T01:09:20.388Z,47.31
2022-08-05T01:10:28.691Z,47.55
2022-08-05T01:11:37.235Z,47.23
2022-08-05T01:12:54.365Z,47.16
2022-08-05T01:14:15.354Z,47.31
2022-08-05T01:15:36.328Z,47.25
2022-08-05T01:16:47.340Z,47.03
2022-08-05T01:18:01.077Z,47.22
2022-08-05T01:19:36.831Z,47.18
2022-08-05T01:21:01.742Z,47.43
2022-08-05T01:22:37.209Z,47.15
2022-08-05T01:24:14.572Z,47.45
2022-08-05T01:25:40.467Z,47.18
2022-08-05T01:27:33.031Z,47.61
2022-08-05T01:28:45.726Z,47.04
2022-08-05T01:29:50.437Z,47.15
2022-08-05T01:31:10.205Z,46.98
2022-08-05T01:32:20.342Z,46.95
2022-08-05T01:33:35.630Z,46.83
2022-08-05T01:34:51.088Z,47.22
2022-08-05T01:35:57.701Z,47.29
2022-08-05T01:37:07.899Z,47.89
2022-08-05T01:38:14.570Z,47.75
2022-08-05T01:39:45.525Z,47.52
2022-08-05T01:40:48.776Z,47.66
2022-08-05T01:41:53.243Z,48.19
2022-08-05T01:42:56.920Z,48.14
2022-08-05T01:44:01.907Z,48.91
2022-08-05T01:45:08.160Z,49.73
2022-08-05T01:46:16.264Z,49.24
2022-08-05T01:47:20.887Z,49.52
2022-08-05T01:48:23.869Z,49.03
2022-08-05T01:49:27.804Z,49.14
2022-08-05T01:50:51.511Z,49.20
2022-08-05T01:52:01.837Z,49.52
2022-08-05T01:53:54.696Z,49.19
2022-08-05T01:54:53.001Z,49.16
2022-08-05T01:56:00.105Z,49.15
2022-08-05T01:58:10.035Z,49.10
2022-08-05T01:58:44.666Z,48.75
2022-08-05T01:59:49.618Z,48.59
2022-08-05T02:00:52.286Z,48.86
2022-08-05T02:01:56.646Z,49.06
2022-08-05T02:03:28.992Z,49.23
2022-08-05T02:04:36.922Z,49.85
2022-08-05T02:05:44.964Z,49.61
2022-08-05T02:06:50.656Z,49.34
2022-08-05T02:08:00.269Z,49.59
2022-08-05T02:09:04.053Z,50.22
2022-08-05T02:10:07.969Z,49.87
2022-08-05T02:11:12.701Z,49.77
2022-08-05T02:12:32.869Z,50.02
2022-08-05T02:13:53.361Z,50.38
2022-08-05T02:15:12.429Z,50.48
2022-08-05T02:16:22.051Z,51.13
2022-08-05T02:18:31.138Z,50.77
2022-08-05T02:18:58.597Z,51.09
2022-08-05T02:20:03.733Z,50.88
2022-08-05T02:21:15.014Z,50.74
2022-08-05T02:22:26.775Z,50.36
2022-08-05T02:23:33.769Z,50.21
2022-08-05T02:24:40.746Z,50.35
2022-08-05T02:25:49.428Z,50.57
2022-08-05T02:26:58.046Z,50.86
2022-08-05T02:28:01.804Z,50.84
2022-08-05T02:29:08.066Z,51.30
2022-08-05T02:30:26.894Z,51.95
2022-08-05T02:31:34.768Z,52.12
2022-08-05T02:32:39.579Z,51.95
2022-08-05T02:33:48.329Z,52.26
2022-08-05T02:34:54.724Z,52.08
2022-08-05T02:36:01.208Z,51.71
2022-08-05T02:37:05.347Z,51.79
2022-08-05T02:38:09.148Z,51.55
2022-08-05T02:39:12.829Z,51.55
2022-08-05T02:40:17.386Z,51.46
2022-08-05T02:41:21.137Z,51.08
2022-08-05T02:42:25.836Z,50.64
2022-08-05T02:43:29.405Z,50.86
2022-08-05T02:44:33.817Z,51.13
2022-08-05T02:45:52.366Z,51.27
2022-08-05T02:46:59.995Z,51.49
2022-08-05T02:48:11.410Z,51.10
2022-08-05T02:49:16.026Z,51.69
2022-08-05T02:50:18.742Z,51.53
2022-08-05T02:51:28.502Z,51.24
2022-08-05T02:52:45.706Z,51.69
2022-08-05T02:53:48.561Z,51.64
2022-08-05T02:54:57.573Z,51.64
2022-08-05T02:56:02.197Z,51.13
2022-08-05T02:57:10.252Z,50.55
2022-08-05T02:58:30.978Z,49.82
2022-08-05T02:59:47.864Z,49.94
2022-08-05T03:00:56.170Z,50.30
2022-08-05T03:02:00.653Z,49.84
2022-08-05T03:03:10.413Z,49.96
2022-08-05T03:04:14.611Z,49.90
2022-08-05T03:05:21.796Z,49.91
2022-08-05T03:06:55.668Z,49.59
2022-08-05T03:08:08.589Z,49.99
2022-08-05T03:09:17.720Z,50.32
2022-08-05T03:10:24.465Z,50.76
2022-08-05T03:11:55.561Z,50.91
2022-08-05T03:12:51.749Z,50.96
2022-08-05T03:14:03.042Z,50.69
2022-08-05T03:15:07.748Z,51.31
2022-08-05T03:16:10.853Z,51.35
2022-08-05T03:17:17.215Z,50.63
2022-08-05T03:18:18.718Z,51.56
2022-08-05T03:19:34.610Z,52.23
2022-08-05T03:20:37.983Z,52.87
2022-08-05T03:21:49.730Z,52.43
2022-08-05T03:22:53.051Z,52.02
2022-08-05T03:23:59.444Z,52.33
2022-08-05T03:25:11.538Z,51.81
2022-08-05T03:26:31.755Z,52.43
2022-08-05T03:27:59.574Z,52.49
2022-08-05T03:28:56.273Z,51.78
2022-08-05T03:30:08.446Z,51.48
2022-08-05T03:31:10.862Z,51.15
2022-08-05T03:32:20.989Z,51.64
2022-08-05T03:33:51.031Z,51.56
2022-08-05T03:34:54.387Z,51.30
2022-08-05T03:35:57.979Z,50.91
2022-08-05T03:36:59.612Z,50.76
2022-08-05T03:38:03.054Z,50.60
2022-08-05T03:39:08.426Z,50.35
2022-08-05T03:40:24.186Z,50.29
2022-08-05T03:41:38.558Z,50.47
2022-08-05T03:42:52.271Z,50.39
2022-08-05T03:44:09.270Z,50.28
2022-08-05T03:45:21.999Z,49.84
2022-08-05T03:46:26.828Z,50.38
2022-08-05T03:47:35.221Z,50.91
2022-08-05T03:48:37.617Z,50.96
2022-08-05T03:49:51.070Z,51.29
2022-08-05T03:50:53.984Z,51.24
2022-08-05T03:52:39.331Z,51.43
2022-08-05T03:55:34.663Z,51.96
2022-08-05T03:56:04.086Z,52.04
2022-08-05T03:56:38.370Z,53.23
2022-08-05T03:57:45.863Z,53.34
2022-08-05T03:58:51.152Z,52.63
2022-08-05T04:00:00.303Z,52.74
2022-08-05T04:01:06.931Z,52.07
2022-08-05T04:02:17.292Z,51.73
2022-08-05T04:03:38.164Z,52.07
2022-08-05T04:04:40.728Z,52.35
2022-08-05T04:05:47.033Z,52.48
2022-08-05T04:06:51.311Z,52.12
2022-08-05T04:07:57.891Z,52.06
2022-08-05T04:09:02.122Z,51.57
2022-08-05T04:10:03.910Z,51.41
2022-08-05T04:11:08.730Z,51.21
2022-08-05T04:12:24.541Z,51.44
2022-08-05T04:13:49.370Z,51.44
2022-08-05T04:14:49.830Z,51.83
2022-08-05T04:16:03.036Z,50.83
2022-08-05T04:17:08.426Z,50.45
2022-08-05T04:18:20.466Z,50.32
2022-08-05T04:19:28.726Z,50.22
2022-08-05T04:20:30.213Z,50.00
2022-08-05T04:22:08.133Z,50.37
2022-08-05T04:22:54.935Z,50.72
2022-08-05T04:24:06.469Z,51.07
2022-08-05T04:25:11.135Z,51.30
2022-08-05T04:26:15.825Z,51.49
2022-08-05T04:27:19.858Z,51.75
2022-08-05T04:28:40.485Z,52.00
2022-08-05T04:29:53.161Z,51.99
2022-08-05T04:30:54.617Z,51.93
2022-08-05T04:31:56.739Z,51.86
2022-08-05T04:32:58.431Z,51.89
2022-08-05T04:34:31.710Z,51.70
2022-08-05T04:35:21.742Z,52.13
2022-08-05T04:36:45.098Z,52.61
2022-08-05T04:38:02.201Z,52.93
2022-08-05T04:39:07.722Z,52.78
2022-08-05T04:40:10.511Z,52.71
2022-08-05T04:41:12.083Z,52.69
2022-08-05T04:42:13.712Z,52.28
2022-08-05T04:43:16.560Z,52.45
2022-08-05T04:44:21.216Z,52.51
2022-08-05T04:45:48.925Z,52.39
2022-08-05T04:46:54.156Z,52.94
2022-08-05T04:48:05.771Z,52.70
2022-08-05T04:49:12.124Z,52.86
2022-08-05T04:50:16.293Z,52.96
2022-08-05T04:51:37.821Z,53.05
2022-08-05T04:52:39.290Z,52.84
2022-08-05T04:53:40.772Z,53.25
2022-08-05T04:54:43.362Z,52.75
2022-08-05T04:56:14.291Z,52.96
2022-08-05T04:57:07.943Z,52.85
2022-08-05T04:58:12.347Z,52.77
2022-08-05T04:59:24.252Z,53.17
2022-08-05T05:00:38.776Z,52.98
2022-08-05T05:02:06.899Z,53.10
2022-08-05T05:03:03.754Z,52.87
2022-08-05T05:04:05.998Z,52.89
2022-08-05T05:05:16.527Z,52.58
2022-08-05T05:06:40.089Z,53.08
2022-08-05T05:07:53.004Z,52.99
2022-08-05T05:08:58.189Z,51.85
2022-08-05T05:10:05.387Z,51.89
2022-08-05T05:11:08.206Z,51.93
2022-08-05T05:12:09.733Z,51.95
2022-08-05T05:13:15.796Z,52.09
2022-08-05T05:14:17.676Z,51.52
2022-08-05T05:15:56.762Z,51.69
2022-08-05T05:16:51.588Z,51.22
2022-08-05T05:17:57.575Z,51.12
2022-08-05T05:19:18.513Z,51.21
2022-08-05T05:20:21.032Z,51.10
2022-08-05T05:21:27.176Z,50.73
2022-08-05T05:22:28.795Z,50.96
2022-08-05T05:23:39.466Z,50.38
2022-08-05T05:24:57.319Z,50.28
2022-08-05T05:26:01.303Z,49.89
2022-08-05T05:27:03.154Z,49.59
2022-08-05T05:28:05.419Z,49.31
2022-08-05T05:29:10.108Z,48.93
2022-08-05T05:30:30.519Z,48.77
2022-08-05T05:32:35.390Z,48.88
2022-08-05T05:33:57.080Z,48.42
2022-08-05T05:34:58.385Z,48.39
2022-08-05T05:35:59.894Z,48.30
2022-08-05T05:37:01.632Z,48.12
2022-08-05T05:38:09.126Z,48.40
2022-08-05T05:39:15.216Z,48.64
2022-08-05T05:40:25.804Z,48.52
2022-08-05T05:41:40.390Z,48.97
2022-08-05T05:42:47.095Z,49.12
2022-08-05T05:43:58.607Z,48.94
2022-08-05T05:45:03.095Z,48.91
2022-08-05T05:46:05.148Z,48.94
2022-08-05T05:47:21.876Z,49.03
2022-08-05T05:48:27.742Z,49.06
2022-08-05T05:49:29.331Z,48.68
2022-08-05T05:50:31.046Z,48.70
2022-08-05T05:51:50.632Z,48.49
2022-08-05T05:52:52.380Z,48.63
2022-08-05T05:53:58.652Z,48.62
2022-08-05T05:55:07.430Z,48.96
2022-08-05T05:56:14.974Z,49.05
2022-08-05T05:57:42.886Z,48.90
2022-08-05T05:58:49.384Z,48.86
2022-08-05T05:59:52.450Z,48.71
2022-08-05T06:00:54.330Z,49.08
2022-08-05T06:01:57.492Z,49.03
2022-08-05T06:03:01.681Z,49.52
2022-08-05T06:04:03.932Z,48.99
2022-08-05T06:05:10.475Z,48.90
2022-08-05T06:06:17.952Z,48.83
2022-08-05T06:07:22.486Z,48.70
2022-08-05T06:08:32.600Z,48.67
2022-08-05T06:09:50.214Z,48.47
2022-08-05T06:10:56.093Z,48.64
2022-08-05T06:12:01.146Z,48.61
2022-08-05T06:13:04.974Z,48.96
2022-08-05T06:14:07.950Z,49.26
2022-08-05T06:15:12.408Z,49.56
2022-08-05T06:16:28.691Z,49.34
2022-08-05T06:17:53.159Z,49.99
2022-08-05T06:18:55.334Z,50.14
2022-08-05T06:19:59.758Z,50.39
2022-08-05T06:21:01.493Z,50.34
2022-08-05T06:22:07.718Z,50.04
2022-08-05T06:23:10.911Z,50.43
2022-08-05T06:24:12.873Z,50.55
2022-08-05T06:25:50.537Z,50.52
2022-08-05T06:26:37.852Z,50.43
2022-08-05T06:28:10.500Z,50.59
2022-08-05T06:29:03.466Z,50.87
2022-08-05T06:30:17.821Z,50.70
2022-08-05T06:31:22.711Z,50.81
2022-08-05T06:32:33.722Z,50.64
2022-08-05T06:34:07.455Z,50.62
2022-08-05T06:34:58.737Z,50.87
2022-08-05T06:36:03.380Z,51.09
2022-08-05T06:37:09.549Z,51.22
2022-08-05T06:38:13.822Z,51.19
2022-08-05T06:39:15.858Z,51.17
2022-08-05T06:40:18.426Z,51.44
2022-08-05T06:41:23.003Z,51.78
2022-08-05T06:42:25.371Z,51.76
2022-08-05T06:43:58.406Z,51.63
2022-08-05T06:44:49.288Z,51.63
2022-08-05T06:46:04.118Z,51.43
2022-08-05T06:47:10.368Z,51.42
2022-08-05T06:48:47.151Z,51.41
2022-08-05T06:50:01.566Z,51.66
2022-08-05T06:51:09.331Z,51.75
2022-08-05T06:52:36.727Z,51.96
2022-08-05T06:53:33.826Z,52.15
2022-08-05T06:54:40.975Z,52.15
2022-08-05T06:55:42.480Z,51.76
2022-08-05T06:56:54.656Z,52.09
2022-08-05T06:58:19.661Z,52.03
2022-08-05T06:59:18.523Z,52.15
2022-08-05T07:00:24.473Z,51.86
2022-08-05T07:01:32.412Z,51.64
2022-08-05T07:02:41.916Z,51.52
2022-08-05T07:03:43.712Z,51.36
2022-08-05T07:04:45.746Z,51.50
2022-08-05T07:05:47.768Z,51.13
2022-08-05T07:06:51.219Z,50.95
2022-08-05T07:07:52.681Z,50.87
2022-08-05T07:08:55.076Z,50.58
2022-08-05T07:09:58.526Z,50.53
2022-08-05T07:11:00.115Z,50.62
2022-08-05T07:12:03.688Z,50.33
2022-08-05T07:13:57.183Z,49.87
2022-08-05T07:15:04.174Z,50.23
2022-08-05T07:18:00.823Z,50.46
2022-08-05T07:18:08.431Z,49.78
2022-08-05T07:19:11.502Z,50.05
2022-08-05T07:20:33.036Z,49.69
2022-08-05T07:22:00.479Z,49.56
2022-08-05T07:22:57.030Z,48.97
2022-08-05T07:23:59.071Z,48.98
2022-08-05T07:25:24.012Z,48.99
2022-08-05T07:26:25.704Z,49.41
2022-08-05T07:28:01.480Z,48.66
2022-08-05T07:28:50.988Z,47.77
2022-08-05T07:30:27.149Z,47.43
2022-08-05T07:31:13.919Z,47.19
2022-08-05T07:32:17.192Z,47.31
2022-08-05T07:33:36.834Z,47.22
2022-08-05T07:34:42.277Z,47.14
2022-08-05T07:36:01.747Z,46.81
2022-08-05T07:37:06.912Z,46.09
2022-08-05T07:38:26.226Z,46.09
2022-08-05T07:40:26.359Z,46.27
2022-08-05T07:41:02.804Z,46.10
2022-08-05T07:42:17.988Z,45.10
2022-08-05T07:43:33.139Z,44.88
2022-08-05T07:44:36.721Z,45.50
2022-08-05T07:45:57.354Z,45.23
2022-08-05T07:46:59.674Z,44.84
2022-08-05T07:48:01.860Z,44.57
2022-08-05T07:49:07.760Z,44.54
2022-08-05T07:50:09.670Z,44.46
2022-08-05T07:51:23.461Z,44.41
2022-08-05T07:52:32.617Z,43.73
2022-08-05T07:53:36.622Z,43.33
2022-08-05T07:54:41.391Z,43.53
2022-08-05T07:56:05.277Z,43.29
2022-08-05T07:57:18.113Z,43.19
2022-08-05T07:58:57.583Z,42.80
2022-08-05T07:59:52.174Z,42.80
2022-08-05T08:00:53.827Z,42.54
2022-08-05T08:01:57.699Z,43.23
2022-08-05T08:03:15.450Z,42.91
2022-08-05T08:04:17.246Z,43.22
2022-08-05T08:05:39.478Z,42.88
2022-08-05T08:06:41.637Z,43.05
2022-08-05T08:07:59.523Z,43.04
2022-08-05T08:09:02.013Z,43.27
2022-08-05T08:10:05.532Z,43.67
2022-08-05T08:11:08.820Z,43.28
2022-08-05T08:12:27.357Z,43.34
2022-08-05T08:13:49.284Z,43.25
2022-08-05T08:14:56.900Z,43.18
2022-08-05T08:16:49.935Z,43.10
2022-08-05T08:17:25.650Z,42.81
2022-08-05T08:18:29.510Z,43.11
2022-08-05T08:20:42.703Z,43.02
2022-08-05T08:21:02.548Z,42.78
2022-08-05T08:22:06.502Z,42.75
2022-08-05T08:23:59.663Z,42.94
2022-08-05T08:24:50.956Z,43.32
2022-08-05T08:26:00.787Z,43.13
2022-08-05T08:27:06.910Z,43.45
2022-08-05T08:28:11.445Z,43.45
2022-08-05T08:29:29.431Z,43.04
2022-08-05T08:30:47.774Z,42.52
2022-08-05T08:31:52.224Z,42.65
2022-08-05T08:32:53.758Z,42.29
2022-08-05T08:33:55.208Z,42.46
2022-08-05T08:34:57.625Z,42.24
2022-08-05T08:36:18.462Z,41.66
2022-08-05T08:37:21.664Z,41.18
2022-08-05T08:38:35.338Z,41.43
2022-08-05T08:39:38.149Z,41.54
2022-08-05T08:40:51.714Z,41.42
2022-08-05T08:41:59.882Z,41.02
2022-08-05T08:44:57.872Z,40.80
2022-08-05T08:45:20.091Z,40.32
2022-08-05T08:45:55.288Z,40.08
2022-08-05T08:46:57.213Z,40.40
2022-08-05T08:48:12.822Z,40.40
2022-08-05T08:50:13.106Z,39.90
2022-08-05T08:51:04.209Z,39.59
2022-08-05T08:52:14.768Z,39.28
2022-08-05T08:53:17.033Z,39.21
2022-08-05T08:54:18.718Z,39.54
2022-08-05T08:56:02.035Z,39.42
2022-08-05T08:56:47.794Z,39.76
2022-08-05T08:57:58.476Z,39.60
2022-08-05T08:59:09.780Z,39.11
2022-08-05T09:00:16.718Z,39.50
2022-08-05T09:01:22.010Z,39.54
2022-08-05T09:02:26.727Z,39.22
2022-08-05T09:03:40.452Z,39.83
2022-08-05T09:04:58.558Z,40.11
2022-08-05T09:06:09.082Z,40.05
2022-08-05T09:07:28.283Z,40.17
2022-08-05T09:08:30.414Z,40.02
2022-08-05T09:09:36.215Z,40.14
2022-08-05T09:10:46.893Z,40.44
2022-08-05T09:11:51.155Z,40.78
2022-08-05T09:12:57.030Z,40.84
2022-08-05T09:14:53.900Z,41.24
2022-08-05T09:15:28.565Z,41.29
2022-08-05T09:16:32.252Z,40.86
2022-08-05T09:17:40.718Z,40.26
2022-08-05T09:18:44.711Z,39.96
2022-08-05T09:20:01.723Z,39.67
2022-08-05T09:21:11.541Z,39.42
2022-08-05T09:22:31.517Z,39.77
2022-08-05T09:23:37.464Z,39.31
2022-08-05T09:24:58.600Z,39.90
2022-08-05T09:26:20.568Z,39.74
2022-08-05T09:28:05.388Z,39.72
2022-08-05T09:29:00.712Z,39.21
2022-08-05T09:30:06.760Z,38.98
2022-08-05T09:31:22.570Z,38.57
2022-08-05T09:32:42.804Z,38.55
2022-08-05T09:33:50.997Z,37.96
2022-08-05T09:34:55.083Z,37.66
2022-08-05T09:36:11.767Z,37.18
2022-08-05T09:38:12.749Z,37.13
2022-08-05T09:39:02.486Z,37.20
2022-08-05T09:40:05.111Z,36.31
2022-08-05T09:41:10.457Z,35.99
2022-08-05T09:42:24.309Z,35.89
2022-08-05T09:43:40.618Z,36.40
2022-08-05T09:44:49.448Z,35.64
2022-08-05T09:46:06.465Z,35.63
2022-08-05T09:47:20.677Z,35.23
2022-08-05T09:48:33.595Z,34.13
2022-08-05T09:50:00.433Z,33.82
2022-08-05T09:51:15.316Z,34.33
2022-08-05T09:52:17.840Z,34.45
2022-08-05T09:53:25.810Z,34.31
2022-08-05T09:54:32.375Z,34.11
2022-08-05T09:55:57.524Z,34.01
2022-08-05T09:57:01.684Z,33.84
2022-08-05T09:58:15.093Z,34.32
2022-08-05T09:59:17.537Z,33.96
2022-08-05T10:00:24.571Z,34.41
2022-08-05T10:01:32.308Z,34.02
2022-08-05T10:02:40.334Z,33.92
2022-08-05T10:03:58.880Z,33.81
2022-08-05T10:05:07.877Z,34.05
2022-08-05T10:06:15.513Z,33.62
2022-08-05T10:07:25.043Z,33.35
2022-08-05T10:08:42.462Z,33.52
2022-08-05T10:10:02.763Z,33.63
2022-08-05T10:11:17.649Z,33.42
2022-08-05T10:12:33.222Z,33.27
2022-08-05T10:13:45.800Z,33.43
2022-08-05T10:14:49.442Z,33.40
2022-08-05T10:15:58.257Z,33.06
2022-08-05T10:17:37.908Z,33.07
2022-08-05T10:18:37.438Z,33.02
2022-08-05T10:20:04.240Z,32.33
2022-08-05T10:21:06.396Z,32.96
2022-08-05T10:22:15.674Z,32.94
2022-08-05T10:23:55.325Z,32.83
2022-08-05T10:24:55.446Z,32.24
2022-08-05T10:26:00.126Z,32.07
2022-08-05T10:27:01.772Z,31.77
2022-08-05T10:28:16.631Z,30.52
2022-08-05T10:30:05.700Z,30.73
2022-08-05T10:32:52.205Z,30.55
2022-08-05T10:32:54.801Z,30.89
2022-08-05T10:33:34.184Z,30.35
2022-08-05T10:34:40.894Z,30.50
2022-08-05T10:35:44.371Z,30.43
2022-08-05T10:36:48.152Z,30.35
2022-08-05T10:37:51.665Z,30.87
2022-08-05T10:39:15.179Z,30.38
2022-08-05T10:40:45.045Z,30.31
2022-08-05T10:41:52.812Z,29.88
2022-08-05T10:42:59.770Z,30.16
2022-08-05T10:44:13.263Z,30.92
2022-08-05T10:45:23.821Z,30.20
2022-08-05T10:46:46.568Z,29.59
2022-08-05T10:48:30.313Z,29.31
2022-08-05T10:49:16.444Z,29.64
2022-08-05T10:50:28.054Z,30.09
2022-08-05T10:51:53.039Z,29.65
2022-08-05T10:53:01.759Z,28.79
2022-08-05T10:54:23.138Z,28.79
2022-08-05T10:55:25.493Z,28.84
2022-08-05T10:56:29.481Z,28.46
2022-08-05T10:57:33.996Z,28.64
2022-08-05T10:58:50.501Z,29.08
2022-08-05T11:00:13.455Z,29.49
2022-08-05T11:02:06.217Z,29.44
2022-08-05T11:03:22.992Z,29.10
2022-08-05T11:04:28.251Z,28.95
2022-08-05T11:05:34.404Z,28.73
2022-08-05T11:06:57.300Z,28.44
2022-08-05T11:08:12.698Z,28.71
2022-08-05T11:09:39.109Z,28.65
2022-08-05T11:10:57.754Z,28.90
2022-08-05T11:12:03.985Z,28.98
2022-08-05T11:13:06.867Z,29.17
2022-08-05T11:14:08.782Z,28.79
2022-08-05T11:15:20.290Z,28.86
2022-08-05T11:16:47.902Z,29.02
2022-08-05T11:17:59.716Z,29.20
2022-08-05T11:20:10.285Z,28.34
2022-08-05T11:20:52.695Z,28.91
2022-08-05T11:22:17.217Z,28.66
2022-08-05T11:24:04.181Z,29.09
2022-08-05T11:26:05.272Z,28.95
2022-08-05T11:27:45.813Z,29.36
2022-08-05T11:28:54.500Z,29.58
2022-08-05T11:29:59.823Z,29.39
2022-08-05T11:31:06.322Z,29.26
2022-08-05T11:32:28.054Z,29.52
2022-08-05T11:33:34.555Z,29.41
2022-08-05T11:34:52.165Z,29.35
2022-08-05T11:36:07.464Z,29.56
2022-08-05T11:38:28.186Z,29.44
2022-08-05T11:38:45.647Z,29.17
2022-08-05T11:39:55.627Z,29.06
2022-08-05T11:41:34.611Z,29.58
2022-08-05T11:42:29.173Z,29.56
2022-08-05T11:44:01.054Z,29.38
2022-08-05T11:45:00.760Z,30.04
2022-08-05T11:46:15.212Z,29.82
2022-08-05T11:47:49.843Z,29.88
2022-08-05T11:48:44.675Z,29.72
2022-08-05T11:49:50.927Z,30.03
2022-08-05T11:50:53.632Z,29.78
2022-08-05T11:51:57.329Z,29.89
2022-08-05T11:53:06.326Z,29.70
2022-08-05T11:54:13.882Z,29.85
2022-08-05T11:55:15.621Z,29.89
2022-08-05T11:56:17.376Z,30.14
2022-08-05T11:57:25.914Z,30.15
2022-08-05T11:58:35.808Z,29.66
2022-08-05T11:59:41.388Z,30.14
2022-08-05T12:01:02.222Z,29.82
2022-08-05T12:02:23.848Z,30.11
2022-08-05T12:03:31.985Z,30.12
2022-08-05T12:04:45.993Z,30.16
2022-08-05T12:06:03.197Z,30.28
2022-08-05T12:07:09.287Z,30.25
2022-08-05T12:08:18.058Z,29.99
2022-08-05T12:09:52.905Z,29.76
2022-08-05T12:10:49.543Z,29.61
2022-08-05T12:11:54.226Z,29.33
2022-08-05T12:13:04.297Z,29.21
2022-08-05T12:14:17.659Z,29.91
2022-08-05T12:15:20.903Z,29.99
2022-08-05T12:16:45.417Z,29.85
2022-08-05T12:18:03.842Z,29.73
2022-08-05T12:20:16.634Z,29.50
2022-08-05T12:20:38.413Z,28.62
2022-08-05T12:21:47.810Z,28.67
2022-08-05T12:22:51.879Z,29.14
2022-08-05T12:24:07.200Z,29.09
2022-08-05T12:25:09.254Z,28.98
2022-08-05T12:26:15.814Z,29.17
2022-08-05T12:27:25.333Z,29.34
2022-08-05T12:28:37.898Z,29.49
2022-08-05T12:29:39.465Z,29.25
2022-08-05T12:30:45.894Z,28.84
2022-08-05T12:31:53.794Z,28.99
2022-08-05T12:32:58.658Z,28.88
2022-08-05T12:34:09.870Z,28.96
2022-08-05T12:35:24.554Z,28.29
2022-08-05T12:36:38.985Z,28.45
2022-08-05T12:37:41.009Z,28.54
2022-08-05T12:38:45.520Z,28.42
2022-08-05T12:39:51.415Z,27.51
2022-08-05T12:40:54.027Z,27.56
2022-08-05T12:42:01.996Z,27.02
2022-08-05T12:43:07.078Z,27.05
2022-08-05T12:44:33.012Z,26.79
2022-08-05T12:45:42.740Z,26.39
2022-08-05T12:46:55.883Z,26.33
2022-08-05T12:48:01.617Z,26.73
2022-08-05T12:49:19.322Z,26.58
2022-08-05T12:50:26.985Z,26.48
2022-08-05T12:52:13.116Z,26.57
2022-08-05T12:53:05.594Z,26.84
2022-08-05T12:54:16.883Z,26.44
2022-08-05T12:55:32.560Z,26.19
2022-08-05T12:56:37.224Z,26.21
2022-08-05T12:58:38.364Z,26.56
2022-08-05T12:59:20.871Z,26.54
2022-08-05T13:02:03.204Z,26.62
2022-08-05T13:02:07.331Z,26.02
2022-08-05T13:03:12.315Z,25.82
2022-08-05T13:04:20.973Z,25.86
2022-08-05T13:05:24.711Z,25.47
2022-08-05T13:06:40.848Z,25.87
2022-08-05T13:08:00.483Z,25.65
2022-08-05T13:09:12.537Z,25.93
2022-08-05T13:10:20.072Z,25.77
2022-08-05T13:11:25.620Z,25.98
2022-08-05T13:12:51.093Z,25.58
2022-08-05T13:14:04.698Z,25.19
2022-08-05T13:15:16.336Z,25.09
2022-08-05T13:16:20.294Z,25.47
2022-08-05T13:17:31.502Z,24.90
2022-08-05T13:18:39.181Z,25.10
2022-08-05T13:19:52.923Z,24.90
2022-08-05T13:20:54.543Z,24.54
2022-08-05T13:21:56.745Z,24.90
2022-08-05T13:22:58.319Z,25.06
2022-08-05T13:23:59.753Z,25.11
2022-08-05T13:25:05.437Z,25.43
2022-08-05T13:26:07.416Z,25.29
2022-08-05T13:27:11.094Z,25.37
2022-08-05T13:28:20.461Z,25.17
2022-08-05T13:29:37.547Z,24.70
2022-08-05T13:30:39.938Z,24.90
2022-08-05T13:32:03.900Z,25.05
2022-08-05T13:33:04.405Z,25.14
2022-08-05T13:34:22.896Z,25.09
2022-08-05T13:35:43.067Z,25.48
2022-08-05T13:36:48.567Z,25.57
2022-08-05T13:37:55.544Z,25.12
2022-08-05T13:38:57.412Z,25.25
2022-08-05T13:40:14.075Z,25.34
2022-08-05T13:41:18.843Z,25.26
2022-08-05T13:42:22.011Z,25.28
2022-08-05T13:43:44.915Z,25.40
2022-08-05T13:44:51.919Z,25.28
2022-08-05T13:45:53.701Z,25.04
2022-08-05T13:47:02.512Z,25.38
2022-08-05T13:48:57.114Z,24.92
2022-08-05T13:49:31.260Z,25.31
2022-08-05T13:50:36.841Z,25.26
2022-08-05T13:51:40.427Z,25.01
2022-08-05T13:52:43.154Z,25.20
2022-08-05T13:53:47.810Z,25.49
2022-08-05T13:54:53.370Z,25.42
2022-08-05T13:56:00.224Z,25.20
2022-08-05T13:57:03.614Z,25.14
2022-08-05T13:58:07.766Z,25.25
2022-08-05T13:59:19.709Z,25.22
2022-08-05T14:00:27.469Z,25.33
2022-08-05T14:01:44.238Z,24.97
2022-08-05T14:02:48.274Z,25.13
2022-08-05T14:04:09.931Z,24.98
2022-08-05T14:05:11.974Z,24.80
2022-08-05T14:06:26.333Z,24.54
2022-08-05T14:07:59.920Z,24.32
2022-08-05T14:08:53.063Z,24.71
2022-08-05T14:09:54.738Z,24.38
2022-08-05T14:11:03.348Z,24.42
2022-08-05T14:12:32.289Z,24.43
2022-08-05T14:13:34.411Z,24.35
2022-08-05T14:14:36.003Z,24.21
2022-08-05T14:16:04.579Z,23.52
2022-08-05T14:16:59.575Z,23.51
2022-08-05T14:18:03.007Z,23.47
2022-08-05T14:19:05.398Z,23.54
2022-08-05T14:20:08.267Z,23.23
2022-08-05T14:22:08.296Z,23.29
2022-08-05T14:22:34.297Z,23.58
2022-08-05T14:23:37.306Z,23.44
2022-08-05T14:24:39.859Z,23.52
2022-08-05T14:25:44.947Z,23.47
2022-08-05T14:27:08.384Z,23.53
2022-08-05T14:28:08.885Z,23.07
2022-08-05T14:29:28.169Z,23.60
2022-08-05T14:30:32.777Z,23.17
2022-08-05T14:32:02.650Z,23.25
2022-08-05T14:32:56.857Z,23.38
2022-08-05T14:34:00.616Z,23.28
2022-08-05T14:35:02.509Z,23.24
2022-08-05T14:36:04.809Z,23.60
2022-08-05T14:37:06.692Z,23.60
2022-08-05T14:38:08.441Z,23.54
2022-08-05T14:39:29.898Z,22.67
2022-08-05T14:40:51.698Z,22.09
2022-08-05T14:42:19.429Z,22.37
2022-08-05T14:43:15.107Z,22.79
2022-08-05T14:44:20.193Z,23.13
2022-08-05T14:45:23.174Z,23.83
2022-08-05T14:46:28.015Z,23.72
2022-08-05T14:48:02.429Z,24.02
2022-08-05T14:48:52.566Z,23.89
2022-08-05T14:49:58.514Z,24.00
2022-08-05T14:51:02.189Z,24.41
2022-08-05T14:52:05.117Z,24.70
2022-08-05T14:53:12.502Z,24.69
2022-08-05T14:54:27.527Z,25.01
2022-08-05T14:55:39.008Z,24.72
2022-08-05T14:56:44.190Z,25.12
2022-08-05T14:57:54.760Z,24.97
2022-08-05T14:58:58.033Z,25.01
2022-08-05T14:59:59.471Z,25.16
2022-08-05T15:01:01.685Z,25.04
2022-08-05T15:02:15.886Z,25.10
2022-08-05T15:03:26.851Z,25.20
2022-08-05T15:04:34.949Z,25.43
2022-08-05T15:06:08.270Z,25.93
2022-08-05T15:06:58.174Z,26.25
2022-08-05T15:08:10.866Z,26.52
2022-08-05T15:09:52.343Z,26.33
2022-08-05T15:10:43.297Z,26.03